Погода в Москве и Подмосковье. Июнь 2011 года.

Полезные ссылки:
Метеоцентр.Азия - наш сайт с высокодетализированными прогнозами погоды по пунктам России и мира
Облегчённая версия Метеоклуба (для смартфонов)

Погода в Москве и Подмосковье. Июнь 2011 года.

Сейчас в Метеоклубе:
Участников - 1 [ Ruxs ]
Максимальное одновременное количество посетителей: 9 [13 Ноя 2019 18:38]
Гостей - 0 / Участников - 9

 - Начало - Ответить - Статистика - Регистрация - Поиск -
МЕТЕОКЛУБ : независимое сообщество любителей метеорологии (Европа и Азия) : ФОРУМ О ПОГОДЕ И ПРИРОДЕ / Погода в центре ЕТР / Погода в Москве и Подмосковье. Июнь 2011 года.
<< 1 ... 54 . 55 . 56 .
Автор Сообщение
Front
Участник
Письмо
Москва
# Дата: 1 Июл 2011 10:49


Sapsan4ik
У нас сильный ветер, который приносит слабый, но до боли знакомый, запах гари
Может это в соседнем дворе помойку просто жгут?;-)

Sibiryak
Участник
Письмо
Мытищи, Московская область
# Дата: 1 Июл 2011 10:52


Сегодня пока не жарко, ветер северный, прохладный.

Doof
Участник
Письмо
Москва. ЮБутово
# Дата: 1 Июл 2011 10:57


Sibiryak
ветер северный, прохладный.

Это где? В Москве ветер восточный, тёплый :-)

Sapsan4ik
Участник
Письмо
Кузьминки
# Дата: 1 Июл 2011 11:37


Front

Если на московских помойках жгут торф, то возможно;)

Foxer
Участник
Письмо
# Дата: 1 Июл 2011 11:50 - Поправил: Foxer


В Москве ветер восточный

Doof
Завтра, с выходом зоны неустойчивости с Украины, ветер сменится наконец на ЮЮЗ. Вот оттуда к нам грозы приходят с дождями всегда )

Front
Участник
Письмо
Москва
# Дата: 1 Июл 2011 11:57


Sapsan4ik
Если на московских помойках жгут торф, то возможно;)
Хорошее у Вас обаняние;-) Завтра и послезавтра от запаха ничего не останется, ветер действительно повернёт на юго-западный.

Sibiryak
Участник
Письмо
Мытищи, Московская область
# Дата: 1 Июл 2011 12:15


Doof
Я в Мытищах, ветер из окна не теплый, окна на север.

Doof
Участник
Письмо
Москва. ЮБутово
# Дата: 1 Июл 2011 12:19


Sibiryak

Странно, везде ветер восточный. Да и при схеме 27/13 сложно назвать втер холодным, даже если он 5-10 м/с.

Sibiryak
Участник
Письмо
Мытищи, Московская область
# Дата: 1 Июл 2011 12:27


Doof
Завихрения)))

Sapsan4ik
Участник
Письмо
Кузьминки
# Дата: 1 Июл 2011 12:37


"температура ветра", если можно так выразиться, около +22 по данным инфракрасного термометра.

Balin
Участник
Письмо
Люберцы. МО
# Дата: 1 Июл 2011 15:44


Konstantin
А вдруг завтра +33° будет?

Сорри, пропустил, к чему это сказано?

LESS

Ну как к чему? Это Константин ждет и не может дождаться суточных рекордов, которых нет и не предвидится. :) Ведь в 2011 г не было ни одного суточного рекорда тепла в Москве. :)

Sibiryak
Участник
Письмо
Мытищи, Московская область
# Дата: 1 Июл 2011 16:15


Doof
Ну и как "теплый восточный ветер"? Прогрев-то хуже вчерашнего.
В тени и вовсе не жарко.

Sapsan4ik
Участник
Письмо
Кузьминки
# Дата: 1 Июл 2011 16:22


Sibiryak

Ветер действительно прохладный, равно как и тень, но на солнце сегодня, имхо, куда жарче, чем вчера.

Doof
Участник
Письмо
Москва. ЮБутово
# Дата: 1 Июл 2011 16:27 - Поправил: Doof


Sibiryak
В тени и вовсе не жарко.

На ВВЦ в 16 +29.8°, аж на 0.5° холоднее вчерашнего :-) Из-за ветра, наверное, лучше перемешивается, а из-за более низкой точки росы создаётся ощущение, что холоднее.

В 17.00 ровно +30°

LESS
Участник
Письмо
Приокский лесс на юге МО
# Дата: 1 Июл 2011 16:34


Balin

Понятно.

LESS
Участник
Письмо
Приокский лесс на юге МО
# Дата: 1 Июл 2011 16:39


Дата: 1 Июл 2011 10:52
SibiryakСегодня пока не жарко, ветер северный, прохладный.

У нас до полудня тоже было не жарко, небо было совсем без облаков и, как это не удивительно, "загарного" типа (значит, сейчас над нами не ТВМ #) - глубокое и синее. Под таким небом замечательно загорать. Ветерок дул крепкий и помогал не ощущать жары.

А после обеда всё изменилось. Вот как выглядит МЕТАР начиная с "пика духоты":

UUDD 011200Z 08006MPS 050V110 CAVOK 29/09 Q1014 WS RWY14L NOSIG=
UUDD 011130Z 09006MPS 050V120 CAVOK 29/10 Q1015 NOSIG=
UUDD 011100Z 10006MPS 060V130 CAVOK 29/12 Q1015 NOSIG=
UUDD 011030Z 11006MPS CAVOK 29/11 Q1015 NOSIG=
UUDD 011000Z 11006MPS CAVOK 28/12 Q1015 NOSIG=
UUDD 010930Z 09006MPS 010V120 CAVOK 28/13 Q1015 NOSIG=
UUDD 010900Z 09005MPS 050V120 9999 SCT043 28/14 Q1015 NOSIG=
UUDD 010830Z 10006MPS 050V130 9999 SCT043 28/15 Q1016 NOSIG=

Вот когда у нас была нижняя строчка приведённой сводки, то было весьма душно (спал при этом крепко). Однако, с этого момента влажность начала уменьшаться. Сейчас уже совсем хорошо - воздух приятный, не душно.

Doof
Участник
Письмо
Москва. ЮБутово
# Дата: 1 Июл 2011 16:39


Sapsan4ik

Солнце, действительно, по ощущениям "сильно печёт", может из-за этого?

2011-07-01 15:35:48 Росгидромет прогнозирует уменьшение озона в атмосфере над Центральной частью РФ.
РБК 01.07.2011, Москва Федеральная служба по гидрометеорологии и мониторингу окружающей среды (Росгидромет) прогнозирует 2 июля 2011г. уменьшение количества озона в атмосфере на 8-13% на юге Архангельской области, а также в Вологодской, Костромской, Нижегородской и Кировской областях, что будет способствовать увеличению ультрафиолетовой облученности. Об этом говорится в сообщении пресс-службы ведомства.

При этом, по прогнозу Росгидромета, 3 июля 2011г. зона дефицита озона в столбе атмосферы переместится на восток Архангельской области и республику Коми. По мнению ведомства, для северян кратковременное уменьшение озонового слоя, обусловленное крупномасштабными атмосферными процессами, является возможностью использовать сложившиеся погодные условия для пополнения в организме витамина D.

Однако Росгидромет рекомендует людям, склонным к солнечным дерматитам, а также со светлой кожей, ограничить в околополуденные часы пребывание под прямыми лучами солнца.

По данным ведомства, 2-3 июля 2011г. дефицит общего содержания озона будет наблюдаться также на Камчатке и на юге Магаданской области, по сравнению с "нормальными" условиями его станет примерно на 15% меньше.



Foxer
Участник
Письмо
# Дата: 1 Июл 2011 18:44


У нас сильный ветер, который приносит слабый, но до боли знакомый, запах гари.

Sapsan4ik
Да нет. Вряд ли. Восточный ветер у нас уже несколько дней, а стало быть предполагаемый запах от торфяников преимущес венно сконцентрированных на востоке МО, мы почувствовали бы давно.

Foxer
Участник
Письмо
# Дата: 1 Июл 2011 18:47


Солнце, действительно, по ощущениям "сильно печёт", может из-за этого?

Doof
Хотите я Вам открою страшную тайну - на дворе июль :-))) Поэтому на солнце жарко при дневной Т выше +30.

Ну а если кроме шуток, то возможно Росгидромет прав.

alexmet
Участник
Письмо
Мурманск
# Дата: 1 Июл 2011 21:36


Sapsan4ik"температура ветра", если можно так выразиться, около +22 по данным инфракрасного термометра.
Что за термометр такой?

Sapsan4ik
Участник
Письмо
Кузьминки
# Дата: 1 Июл 2011 23:33


alexmet

http://goods.marketgid.com/goods/473/3367492/

Foxer
Участник
Письмо
# Дата: 2 Июл 2011 00:43 - Поправил: Foxer


Sapsan4ik
Зря я Вас поправил. Слабый запах гари ощущается сейчас на Преображенке.
Сорри! :-)

alexmet
Участник
Письмо
Мурманск
# Дата: 2 Июл 2011 01:32


Sapsan4ikhttp://goods.marketgid.com/goods/473/33 67492/
Сомневаюсь что им можно Т в-ха измерить, ведь он работает в ИК-диапазоне. А воздух прозрачен и соотв.,не может отражать ИК-лучи.
Следовательно, Вы меряете Т всего угодно, но никак не воздуха!

Corvus
Автор сайта
Письмо
###Corvus###
# Дата: 2 Июл 2011 09:06


А после обеда всё изменилось. Вот как выглядит МЕТАР начиная с "пика духоты":

UUDD 011200Z 08006MPS 050V110 CAVOK 29/09 Q1014 WS RWY14L NOSIG=

UUDD 010830Z 10006MPS 050V130 9999 SCT043 28/15 Q1016 NOSIG=

Вот когда у нас была нижняя строчка приведённой сводки, то было весьма душно (спал при этом крепко). Однако, с этого момента влажность начала уменьшаться. Сейчас уже совсем хорошо - воздух приятный, не душно.

LESS

Да, с точки зрения теплоощущения Тд +9 и +15 - две большие разницы. Причём при любой температуре - хоть +18, хоть +40 - при Тд +9 гораздо менее жарко и дышится легче, чем при Тд +15 (я уж не говорю о кошмарных Тд +20 и выше).

Sapsan4ik
Участник
Письмо
Кузьминки
# Дата: 2 Июл 2011 10:29 - Поправил: Sapsan4ik



Сомневаюсь что им можно Т в-ха измерить, ведь он работает в ИК-диапазоне. А воздух прозрачен и соотв.,не может отражать ИК-лучи.
Следовательно, Вы меряете Т всего угодно, но никак не воздуха!

alexmet

Возможно, Вы правы, но воздух все же не вакуум и, кроме того, его показания совпадают с другими приборами.

Foxer

Бывает:) Прошлой ночью это был едва уловимый сладковатый аромат торфа, а этой уже более "обьемный" и отчетливый запах гари. Хотя конечно до прошлогодней отчетливости пока далеко.

LESS
Участник
Письмо
Приокский лесс на юге МО
# Дата: 2 Июл 2011 11:20


Igor
- итого 29,1

У меня всё равно меньше получается #

Ilya
Участник
Письмо
г. Белгород
# Дата: 7 Июл 2011 23:48 - Поправил: Ilya


Ай, не туда)

maxedo
Участник
Письмо
Москва, САО
# Дата: 17 Июл 2011 16:16


Поделюсь своими наблюдениями. г. Боровск Калужская обл. (Юго-запад) В 3 ночи пошёл ливень, потом я уснул. В 0630 утра разбудил меня раскат грома. Так и до 1130 ливни с грозой с перерывами. Сейчас +26 парит, дымка, фронт ушел?

<< 1 ... 54 . 55 . 56 .
Ваш ответ

          Отменить *Что это?

 » Логин  » Пароль